sensor_id;sensor_type;location;lat;lon;timestamp;pressure;altitude;pressure_sealevel;temperature;humidity
73383;BME280;61600;48.126;11.542;2022-11-12T00:01:05;97174.72;;;9.58;69.88
73383;BME280;61600;48.126;11.542;2022-11-12T00:03:31;97167.69;;;9.45;67.89
73383;BME280;61600;48.126;11.542;2022-11-12T00:05:56;97174.09;;;9.27;67.76
73383;BME280;61600;48.126;11.542;2022-11-12T00:08:22;97176.03;;;9.03;69.12
73383;BME280;61600;48.126;11.542;2022-11-12T00:10:47;97175.19;;;9.15;69.51
73383;BME280;61600;48.126;11.542;2022-11-12T00:13:13;97180.38;;;9.28;69.12
73383;BME280;61600;48.126;11.542;2022-11-12T00:15:39;97173.44;;;8.85;68.56
73383;BME280;61600;48.126;11.542;2022-11-12T00:18:05;97174.41;;;8.79;69.56
73383;BME280;61600;48.126;11.542;2022-11-12T00:20:32;97182.28;;;8.92;69.36
73383;BME280;61600;48.126;11.542;2022-11-12T00:23:00;97177.44;;;9.06;69.35
73383;BME280;61600;48.126;11.542;2022-11-12T00:25:26;97175.66;;;9.12;68.51
73383;BME280;61600;48.126;11.542;2022-11-12T00:27:52;97169.88;;;9.08;68.67
73383;BME280;61600;48.126;11.542;2022-11-12T00:30:18;97181.91;;;9.12;68.45
73383;BME280;61600;48.126;11.542;2022-11-12T00:32:44;97170.22;;;9.12;68.11
73383;BME280;61600;48.126;11.542;2022-11-12T00:35:09;97175.56;;;9.18;67.97
73383;BME280;61600;48.126;11.542;2022-11-12T00:37:36;97167.84;;;9.15;67.90
73383;BME280;61600;48.126;11.542;2022-11-12T00:40:02;97160.53;;;9.16;67.57
73383;BME280;61600;48.126;11.542;2022-11-12T00:42:28;97164.69;;;9.18;67.52
73383;BME280;61600;48.126;11.542;2022-11-12T00:44:54;97162.09;;;9.12;67.54
73383;BME280;61600;48.126;11.542;2022-11-12T00:47:20;97171.31;;;9.11;66.97
73383;BME280;61600;48.126;11.542;2022-11-12T00:49:45;97172.03;;;8.71;68.42
73383;BME280;61600;48.126;11.542;2022-11-12T00:52:11;97163.44;;;8.86;68.35
73383;BME280;61600;48.126;11.542;2022-11-12T00:54:37;97164.72;;;8.83;68.32
73383;BME280;61600;48.126;11.542;2022-11-12T00:57:03;97176.41;;;8.72;69.19
73383;BME280;61600;48.126;11.542;2022-11-12T00:59:30;97165.56;;;8.61;69.14
73383;BME280;61600;48.126;11.542;2022-11-12T01:01:56;97169.06;;;8.73;69.12
73383;BME280;61600;48.126;11.542;2022-11-12T01:04:22;97168.38;;;8.77;68.06
73383;BME280;61600;48.126;11.542;2022-11-12T01:06:48;97169.91;;;8.73;68.04
73383;BME280;61600;48.126;11.542;2022-11-12T01:09:13;97176.75;;;8.76;68.04
73383;BME280;61600;48.126;11.542;2022-11-12T01:11:39;97166.34;;;8.73;67.81
73383;BME280;61600;48.126;11.542;2022-11-12T01:14:07;97154.22;;;8.75;67.66
73383;BME280;61600;48.126;11.542;2022-11-12T01:16:35;97161.28;;;8.76;67.94
73383;BME280;61600;48.126;11.542;2022-11-12T01:19:03;97159.31;;;8.72;67.91
73383;BME280;61600;48.126;11.542;2022-11-12T01:21:30;97156.09;;;8.63;68.04
73383;BME280;61600;48.126;11.542;2022-11-12T01:23:57;97155.84;;;8.41;68.74
73383;BME280;61600;48.126;11.542;2022-11-12T01:26:23;97151.16;;;8.48;68.07
73383;BME280;61600;48.126;11.542;2022-11-12T01:28:49;97154.09;;;8.35;68.82
73383;BME280;61600;48.126;11.542;2022-11-12T01:31:24;97156.47;;;8.43;68.29
73383;BME280;61600;48.126;11.542;2022-11-12T01:33:55;97151.16;;;8.48;68.18
73383;BME280;61600;48.126;11.542;2022-11-12T01:36:25;97150.53;;;8.35;67.86
73383;BME280;61600;48.126;11.542;2022-11-12T01:38:52;97144.00;;;8.01;69.34
73383;BME280;61600;48.126;11.542;2022-11-12T01:41:24;97147.53;;;8.01;68.78
73383;BME280;61600;48.126;11.542;2022-11-12T01:46:34;97142.94;;;8.14;68.03
73383;BME280;61600;48.126;11.542;2022-11-12T01:49:04;97150.34;;;7.95;68.39
73383;BME280;61600;48.126;11.542;2022-11-12T01:51:33;97145.19;;;8.17;68.00
73383;BME280;61600;48.126;11.542;2022-11-12T01:54:05;97150.00;;;8.03;68.08
73383;BME280;61600;48.126;11.542;2022-11-12T01:56:32;97145.69;;;8.25;66.60
73383;BME280;61600;48.126;11.542;2022-11-12T01:59:02;97141.00;;;8.32;66.88
73383;BME280;61600;48.126;11.542;2022-11-12T02:01:29;97142.66;;;7.92;66.93
73383;BME280;61600;48.126;11.542;2022-11-12T02:03:55;97133.94;;;7.60;68.51
73383;BME280;61600;48.126;11.542;2022-11-12T02:06:21;97137.38;;;7.56;68.92
73383;BME280;61600;48.126;11.542;2022-11-12T02:08:48;97133.53;;;7.75;68.25
73383;BME280;61600;48.126;11.542;2022-11-12T02:11:21;97125.56;;;7.80;67.91
73383;BME280;61600;48.126;11.542;2022-11-12T02:13:48;97126.41;;;7.92;67.26
73383;BME280;61600;48.126;11.542;2022-11-12T02:16:41;97132.06;;;7.49;68.31
73383;BME280;61600;48.126;11.542;2022-11-12T02:19:11;97119.53;;;7.78;67.79
73383;BME280;61600;48.126;11.542;2022-11-12T02:21:37;97113.34;;;8.00;67.32
73383;BME280;61600;48.126;11.542;2022-11-12T02:24:27;97113.56;;;7.87;67.28
73383;BME280;61600;48.126;11.542;2022-11-12T02:26:54;97126.19;;;7.64;68.00
73383;BME280;61600;48.126;11.542;2022-11-12T02:29:21;97120.59;;;7.47;68.20
73383;BME280;61600;48.126;11.542;2022-11-12T02:31:47;97123.22;;;7.24;68.90
73383;BME280;61600;48.126;11.542;2022-11-12T02:34:13;97120.00;;;7.15;69.29
73383;BME280;61600;48.126;11.542;2022-11-12T02:36:38;97121.72;;;7.10;69.82
73383;BME280;61600;48.126;11.542;2022-11-12T02:39:04;97117.66;;;7.00;69.84
73383;BME280;61600;48.126;11.542;2022-11-12T02:41:30;97117.31;;;6.79;70.67
73383;BME280;61600;48.126;11.542;2022-11-12T02:43:56;97119.66;;;6.75;70.55
73383;BME280;61600;48.126;11.542;2022-11-12T02:46:24;97116.69;;;6.77;70.65
73383;BME280;61600;48.126;11.542;2022-11-12T02:48:49;97113.97;;;6.59;71.15
73383;BME280;61600;48.126;11.542;2022-11-12T02:51:15;97116.22;;;6.62;71.00
73383;BME280;61600;48.126;11.542;2022-11-12T02:53:43;97116.03;;;6.81;70.56
73383;BME280;61600;48.126;11.542;2022-11-12T02:56:09;97118.81;;;6.75;70.63
73383;BME280;61600;48.126;11.542;2022-11-12T02:58:35;97110.16;;;7.02;70.21
73383;BME280;61600;48.126;11.542;2022-11-12T03:01:03;97120.38;;;7.00;68.94
73383;BME280;61600;48.126;11.542;2022-11-12T03:03:28;97116.97;;;7.23;68.99
73383;BME280;61600;48.126;11.542;2022-11-12T03:05:59;97114.09;;;7.36;68.95
73383;BME280;61600;48.126;11.542;2022-11-12T03:08:28;97117.56;;;7.25;68.85
73383;BME280;61600;48.126;11.542;2022-11-12T03:10:53;97114.44;;;7.10;69.12
73383;BME280;61600;48.126;11.542;2022-11-12T03:13:19;97118.88;;;7.04;69.16
73383;BME280;61600;48.126;11.542;2022-11-12T03:15:45;97127.91;;;6.80;70.64
73383;BME280;61600;48.126;11.542;2022-11-12T03:18:11;97124.94;;;7.18;68.73
73383;BME280;61600;48.126;11.542;2022-11-12T03:20:37;97127.88;;;7.35;68.57
73383;BME280;61600;48.126;11.542;2022-11-12T03:23:05;97127.91;;;6.98;70.00
73383;BME280;61600;48.126;11.542;2022-11-12T03:25:34;97133.59;;;6.90;70.05
73383;BME280;61600;48.126;11.542;2022-11-12T03:28:03;97136.75;;;6.87;70.51
73383;BME280;61600;48.126;11.542;2022-11-12T03:30:32;97127.97;;;6.74;70.81
73383;BME280;61600;48.126;11.542;2022-11-12T03:33:01;97139.44;;;6.69;71.00
73383;BME280;61600;48.126;11.542;2022-11-12T03:35:27;97146.44;;;6.77;71.26
73383;BME280;61600;48.126;11.542;2022-11-12T03:37:53;97138.34;;;6.95;70.07
73383;BME280;61600;48.126;11.542;2022-11-12T03:40:19;97140.00;;;6.78;70.99
73383;BME280;61600;48.126;11.542;2022-11-12T03:42:49;97131.19;;;6.64;71.61
73383;BME280;61600;48.126;11.542;2022-11-12T03:45:17;97141.94;;;6.71;71.08
73383;BME280;61600;48.126;11.542;2022-11-12T03:47:47;97140.19;;;6.58;71.65
73383;BME280;61600;48.126;11.542;2022-11-12T03:50:15;97147.50;;;6.58;72.02
73383;BME280;61600;48.126;11.542;2022-11-12T03:52:45;97144.34;;;6.61;71.75
73383;BME280;61600;48.126;11.542;2022-11-12T03:55:12;97146.09;;;6.48;72.62
73383;BME280;61600;48.126;11.542;2022-11-12T03:57:38;97140.41;;;6.57;71.68
73383;BME280;61600;48.126;11.542;2022-11-12T04:00:05;97144.41;;;6.72;70.67
73383;BME280;61600;48.126;11.542;2022-11-12T04:02:32;97154.41;;;6.72;71.82
73383;BME280;61600;48.126;11.542;2022-11-12T04:04:58;97151.41;;;6.80;71.10
73383;BME280;61600;48.126;11.542;2022-11-12T04:07:42;97144.34;;;6.61;69.98
73383;BME280;61600;48.126;11.542;2022-11-12T04:10:26;97149.38;;;6.75;71.47
73383;BME280;61600;48.126;11.542;2022-11-12T04:12:56;97143.59;;;6.90;70.59
73383;BME280;61600;48.126;11.542;2022-11-12T04:15:40;97148.78;;;6.91;71.18
73383;BME280;61600;48.126;11.542;2022-11-12T04:18:06;97144.19;;;6.74;71.29
73383;BME280;61600;48.126;11.542;2022-11-12T04:20:51;97136.47;;;6.95;70.49
73383;BME280;61600;48.126;11.542;2022-11-12T04:23:35;97143.38;;;7.10;70.28
73383;BME280;61600;48.126;11.542;2022-11-12T04:26:00;97142.84;;;7.01;70.15
73383;BME280;61600;48.126;11.542;2022-11-12T04:28:44;97142.84;;;7.19;70.26
73383;BME280;61600;48.126;11.542;2022-11-12T04:31:29;97149.28;;;6.64;71.43
73383;BME280;61600;48.126;11.542;2022-11-12T04:33:54;97148.25;;;6.65;71.60
73383;BME280;61600;48.126;11.542;2022-11-12T04:36:40;97146.38;;;6.83;70.77
73383;BME280;61600;48.126;11.542;2022-11-12T04:39:06;97155.56;;;6.82;69.56
73383;BME280;61600;48.126;11.542;2022-11-12T04:41:31;97151.38;;;6.43;72.63
73383;BME280;61600;48.126;11.542;2022-11-12T04:44:16;97141.88;;;6.34;73.50
73383;BME280;61600;48.126;11.542;2022-11-12T04:47:03;97151.25;;;6.32;73.47
73383;BME280;61600;48.126;11.542;2022-11-12T04:49:28;97138.00;;;6.48;72.27
73383;BME280;61600;48.126;11.542;2022-11-12T04:51:54;97147.44;;;6.39;72.85
73383;BME280;61600;48.126;11.542;2022-11-12T04:54:32;97144.81;;;6.51;72.24
73383;BME280;61600;48.126;11.542;2022-11-12T04:56:58;97152.06;;;6.57;70.46
73383;BME280;61600;48.126;11.542;2022-11-12T04:59:24;97153.19;;;6.49;71.36
73383;BME280;61600;48.126;11.542;2022-11-12T05:01:50;97146.94;;;6.49;72.71
73383;BME280;61600;48.126;11.542;2022-11-12T05:04:15;97146.69;;;6.32;72.13
73383;BME280;61600;48.126;11.542;2022-11-12T05:06:41;97149.44;;;6.26;71.60
73383;BME280;61600;48.126;11.542;2022-11-12T05:09:16;97154.56;;;6.34;71.38
73383;BME280;61600;48.126;11.542;2022-11-12T05:11:44;97160.63;;;6.29;72.85
73383;BME280;61600;48.126;11.542;2022-11-12T05:14:12;97152.16;;;6.44;72.08
73383;BME280;61600;48.126;11.542;2022-11-12T05:16:38;97154.03;;;6.68;72.01
73383;BME280;61600;48.126;11.542;2022-11-12T05:19:04;97155.28;;;6.66;71.10
73383;BME280;61600;48.126;11.542;2022-11-12T05:21:33;97154.09;;;6.19;71.03
73383;BME280;61600;48.126;11.542;2022-11-12T05:24:19;97154.78;;;6.57;71.95
73383;BME280;61600;48.126;11.542;2022-11-12T05:26:45;97154.78;;;6.57;70.94
73383;BME280;61600;48.126;11.542;2022-11-12T05:29:11;97158.44;;;6.63;71.47
73383;BME280;61600;48.126;11.542;2022-11-12T05:31:42;97157.94;;;6.54;69.49
73383;BME280;61600;48.126;11.542;2022-11-12T05:34:08;97157.38;;;6.45;71.57
73383;BME280;61600;48.126;11.542;2022-11-12T05:36:34;97155.69;;;6.44;72.04
73383;BME280;61600;48.126;11.542;2022-11-12T05:38:59;97156.66;;;6.32;72.23
73383;BME280;61600;48.126;11.542;2022-11-12T05:41:25;97142.69;;;6.60;71.72
73383;BME280;61600;48.126;11.542;2022-11-12T05:43:51;97146.28;;;6.53;71.80
73383;BME280;61600;48.126;11.542;2022-11-12T05:46:17;97149.38;;;6.75;71.17
73383;BME280;61600;48.126;11.542;2022-11-12T05:48:45;97160.59;;;6.36;72.04
73383;BME280;61600;48.126;11.542;2022-11-12T05:51:11;97160.56;;;6.61;71.18
73383;BME280;61600;48.126;11.542;2022-11-12T05:53:41;97161.06;;;6.69;70.80
73383;BME280;61600;48.126;11.542;2022-11-12T05:56:08;97166.13;;;6.84;70.65
73383;BME280;61600;48.126;11.542;2022-11-12T05:58:35;97162.53;;;6.72;70.53
73383;BME280;61600;48.126;11.542;2022-11-12T06:01:01;97165.22;;;6.90;69.59
73383;BME280;61600;48.126;11.542;2022-11-12T06:03:27;97162.41;;;7.21;68.54
73383;BME280;61600;48.126;11.542;2022-11-12T06:05:53;97171.22;;;6.74;69.79
73383;BME280;61600;48.126;11.542;2022-11-12T06:08:21;97179.97;;;6.51;70.57
73383;BME280;61600;48.126;11.542;2022-11-12T06:10:48;97182.34;;;6.84;70.23
73383;BME280;61600;48.126;11.542;2022-11-12T06:13:18;97177.81;;;6.60;70.39
73383;BME280;61600;48.126;11.542;2022-11-12T06:15:44;97180.84;;;6.70;69.73
73383;BME280;61600;48.126;11.542;2022-11-12T06:18:14;97183.41;;;6.65;70.21
73383;BME280;61600;48.126;11.542;2022-11-12T06:20:39;97185.88;;;6.66;70.07
73383;BME280;61600;48.126;11.542;2022-11-12T06:23:05;97182.88;;;6.74;70.23
73383;BME280;61600;48.126;11.542;2022-11-12T06:25:33;97190.91;;;6.81;69.97
73383;BME280;61600;48.126;11.542;2022-11-12T06:27:59;97181.31;;;6.85;68.11
73383;BME280;61600;48.126;11.542;2022-11-12T06:30:25;97177.84;;;6.78;69.13
73383;BME280;61600;48.126;11.542;2022-11-12T06:32:53;97175.91;;;6.85;68.36
73383;BME280;61600;48.126;11.542;2022-11-12T06:35:19;97175.31;;;6.58;70.80
73383;BME280;61600;48.126;11.542;2022-11-12T06:37:45;97174.38;;;6.71;70.93
73383;BME280;61600;48.126;11.542;2022-11-12T06:40:14;97175.78;;;6.55;68.98
73383;BME280;61600;48.126;11.542;2022-11-12T06:42:40;97193.94;;;6.91;70.00
73383;BME280;61600;48.126;11.542;2022-11-12T06:45:08;97183.34;;;6.46;70.99
73383;BME280;61600;48.126;11.542;2022-11-12T06:47:34;97195.72;;;6.36;71.86
73383;BME280;61600;48.126;11.542;2022-11-12T06:50:00;97187.22;;;6.57;70.62
73383;BME280;61600;48.126;11.542;2022-11-12T06:52:27;97191.34;;;6.35;71.55
73383;BME280;61600;48.126;11.542;2022-11-12T06:54:52;97192.16;;;6.11;71.99
73383;BME280;61600;48.126;11.542;2022-11-12T06:57:18;97184.78;;;6.49;71.04
73383;BME280;61600;48.126;11.542;2022-11-12T06:59:43;97181.22;;;6.73;70.87
73383;BME280;61600;48.126;11.542;2022-11-12T07:02:11;97175.88;;;6.67;70.49
73383;BME280;61600;48.126;11.542;2022-11-12T07:04:37;97182.63;;;6.58;71.40
73383;BME280;61600;48.126;11.542;2022-11-12T07:07:05;97185.09;;;7.02;69.64
73383;BME280;61600;48.126;11.542;2022-11-12T07:09:30;97190.56;;;7.14;68.86
73383;BME280;61600;48.126;11.542;2022-11-12T07:11:56;97185.53;;;6.99;69.17
73383;BME280;61600;48.126;11.542;2022-11-12T07:14:22;97182.66;;;6.94;69.41
73383;BME280;61600;48.126;11.542;2022-11-12T07:16:47;97190.94;;;6.99;69.36
73383;BME280;61600;48.126;11.542;2022-11-12T07:19:13;97184.63;;;7.23;68.56
73383;BME280;61600;48.126;11.542;2022-11-12T07:21:39;97189.59;;;7.26;67.74
73383;BME280;61600;48.126;11.542;2022-11-12T07:24:04;97192.44;;;6.95;68.43
73383;BME280;61600;48.126;11.542;2022-11-12T07:26:30;97194.69;;;7.16;68.72
73383;BME280;61600;48.126;11.542;2022-11-12T07:28:56;97187.31;;;6.87;69.69
73383;BME280;61600;48.126;11.542;2022-11-12T07:31:22;97192.06;;;7.10;69.29
73383;BME280;61600;48.126;11.542;2022-11-12T07:33:48;97190.34;;;7.15;69.64
73383;BME280;61600;48.126;11.542;2022-11-12T07:36:16;97188.47;;;7.34;68.67
73383;BME280;61600;48.126;11.542;2022-11-12T07:38:43;97188.44;;;7.52;68.58
73383;BME280;61600;48.126;11.542;2022-11-12T07:41:20;97189.28;;;7.34;67.32
73383;BME280;61600;48.126;11.542;2022-11-12T07:43:47;97189.03;;;6.81;70.19
73383;BME280;61600;48.126;11.542;2022-11-12T07:46:16;97187.69;;;6.90;70.28
73383;BME280;61600;48.126;11.542;2022-11-12T07:48:42;97182.22;;;6.79;69.69
73383;BME280;61600;48.126;11.542;2022-11-12T07:51:17;97184.50;;;7.00;68.64
73383;BME280;61600;48.126;11.542;2022-11-12T07:53:44;97186.88;;;7.08;69.66
73383;BME280;61600;48.126;11.542;2022-11-12T07:56:13;97188.69;;;7.14;69.06
73383;BME280;61600;48.126;11.542;2022-11-12T07:58:40;97185.69;;;6.86;70.30
73383;BME280;61600;48.126;11.542;2022-11-12T08:01:08;97187.03;;;7.13;69.90
73383;BME280;61600;48.126;11.542;2022-11-12T08:03:34;97186.22;;;7.31;69.40
73383;BME280;61600;48.126;11.542;2022-11-12T08:06:01;97176.53;;;7.53;68.46
73383;BME280;61600;48.126;11.542;2022-11-12T08:08:27;97187.38;;;7.53;69.83
73383;BME280;61600;48.126;11.542;2022-11-12T08:10:55;97188.81;;;7.85;68.75
73383;BME280;61600;48.126;11.542;2022-11-12T08:13:22;97183.75;;;7.89;68.08
73383;BME280;61600;48.126;11.542;2022-11-12T08:15:47;97181.91;;;7.71;68.14
73383;BME280;61600;48.126;11.542;2022-11-12T08:18:13;97187.16;;;7.84;67.86
73383;BME280;61600;48.126;11.542;2022-11-12T08:20:39;97190.88;;;8.01;67.71
73383;BME280;61600;48.126;11.542;2022-11-12T08:23:05;97195.41;;;8.19;66.28
73383;BME280;61600;48.126;11.542;2022-11-12T08:25:30;97191.91;;;8.30;66.72
73383;BME280;61600;48.126;11.542;2022-11-12T08:27:59;97192.03;;;8.35;66.04
73383;BME280;61600;48.126;11.542;2022-11-12T08:30:26;97198.94;;;8.20;66.79
73383;BME280;61600;48.126;11.542;2022-11-12T08:32:57;97196.53;;;8.30;66.58
73383;BME280;61600;48.126;11.542;2022-11-12T08:35:23;97199.91;;;7.95;67.60
73383;BME280;61600;48.126;11.542;2022-11-12T08:38:00;97196.75;;;8.28;66.75
73383;BME280;61600;48.126;11.542;2022-11-12T08:40:27;97200.94;;;8.24;66.99
73383;BME280;61600;48.126;11.542;2022-11-12T08:43:00;97201.00;;;8.36;67.04
73383;BME280;61600;48.126;11.542;2022-11-12T08:45:27;97194.19;;;8.33;65.22
73383;BME280;61600;48.126;11.542;2022-11-12T08:47:58;97198.81;;;8.68;66.13
73383;BME280;61600;48.126;11.542;2022-11-12T08:50:24;97204.22;;;8.56;66.85
73383;BME280;61600;48.126;11.542;2022-11-12T08:52:51;97195.63;;;8.71;66.56
73383;BME280;61600;48.126;11.542;2022-11-12T08:55:16;97189.84;;;8.90;65.68
73383;BME280;61600;48.126;11.542;2022-11-12T08:57:43;97192.56;;;8.79;65.30
73383;BME280;61600;48.126;11.542;2022-11-12T09:00:10;97195.50;;;8.89;65.88
73383;BME280;61600;48.126;11.542;2022-11-12T09:02:37;97189.97;;;8.72;66.57
73383;BME280;61600;48.126;11.542;2022-11-12T09:05:03;97181.69;;;8.56;67.26
73383;BME280;61600;48.126;11.542;2022-11-12T09:07:32;97191.34;;;8.51;67.25
73383;BME280;61600;48.126;11.542;2022-11-12T09:09:57;97194.97;;;8.34;67.82
73383;BME280;61600;48.126;11.542;2022-11-12T09:12:23;97193.50;;;8.61;67.17
73383;BME280;61600;48.126;11.542;2022-11-12T09:14:48;97191.13;;;8.76;66.41
73383;BME280;61600;48.126;11.542;2022-11-12T09:17:14;97190.88;;;9.13;65.38
73383;BME280;61600;48.126;11.542;2022-11-12T09:19:40;97199.63;;;9.03;65.62
73383;BME280;61600;48.126;11.542;2022-11-12T09:22:06;97190.16;;;9.29;63.79
73383;BME280;61600;48.126;11.542;2022-11-12T09:24:31;97203.84;;;9.22;65.58
73383;BME280;61600;48.126;11.542;2022-11-12T09:26:57;97199.84;;;9.13;66.33
73383;BME280;61600;48.126;11.542;2022-11-12T09:29:23;97200.25;;;9.57;64.96
73383;BME280;61600;48.126;11.542;2022-11-12T09:31:49;97193.75;;;9.86;62.80
73383;BME280;61600;48.126;11.542;2022-11-12T09:34:14;97189.75;;;9.88;63.56
73383;BME280;61600;48.126;11.542;2022-11-12T09:36:40;97204.75;;;10.19;62.63
73383;BME280;61600;48.126;11.542;2022-11-12T09:39:06;97201.66;;;10.27;62.73
73383;BME280;61600;48.126;11.542;2022-11-12T09:41:40;97199.00;;;10.32;63.05
73383;BME280;61600;48.126;11.542;2022-11-12T09:44:15;97196.53;;;10.31;62.81
73383;BME280;61600;48.126;11.542;2022-11-12T09:47:25;97208.06;;;10.38;62.71
73383;BME280;61600;48.126;11.542;2022-11-12T09:49:41;97200.25;;;10.75;60.78
73383;BME280;61600;48.126;11.542;2022-11-12T09:52:24;97200.84;;;10.43;62.42
73383;BME280;61600;48.126;11.542;2022-11-12T09:55:07;97191.44;;;10.68;62.10
73383;BME280;61600;48.126;11.542;2022-11-12T09:57:38;97201.31;;;10.24;63.73
73383;BME280;61600;48.126;11.542;2022-11-12T10:00:33;97201.41;;;10.79;63.06
73383;BME280;61600;48.126;11.542;2022-11-12T10:03:07;97200.81;;;11.10;61.67
73383;BME280;61600;48.126;11.542;2022-11-12T10:11:31;97190.75;;;11.11;61.86
73383;BME280;61600;48.126;11.542;2022-11-12T10:24:15;97179.09;;;11.37;61.24
73383;BME280;61600;48.126;11.542;2022-11-12T10:26:41;97173.34;;;11.33;61.10
73383;BME280;61600;48.126;11.542;2022-11-12T10:31:36;97158.88;;;11.71;60.38
73383;BME280;61600;48.126;11.542;2022-11-12T10:34:19;97160.78;;;11.54;60.65
73383;BME280;61600;48.126;11.542;2022-11-12T10:36:50;97157.94;;;11.44;61.41
73383;BME280;61600;48.126;11.542;2022-11-12T10:42:17;97141.69;;;11.71;59.42
73383;BME280;61600;48.126;11.542;2022-11-12T10:44:43;97145.88;;;12.05;58.04
73383;BME280;61600;48.126;11.542;2022-11-12T10:47:23;97140.41;;;11.78;59.95
73383;BME280;61600;48.126;11.542;2022-11-12T10:55:29;97129.97;;;12.61;57.68
73383;BME280;61600;48.126;11.542;2022-11-12T11:01:03;97127.91;;;12.73;56.55
73383;BME280;61600;48.126;11.542;2022-11-12T11:03:43;97121.25;;;13.00;55.82
73383;BME280;61600;48.126;11.542;2022-11-12T11:09:22;97113.19;;;13.21;56.39
73383;BME280;61600;48.126;11.542;2022-11-12T11:11:30;97114.25;;;13.20;59.56
73383;BME280;61600;48.126;11.542;2022-11-12T11:14:07;97103.31;;;13.92;57.96
73383;BME280;61600;48.126;11.542;2022-11-12T11:19:15;97089.97;;;14.61;52.02
73383;BME280;61600;48.126;11.542;2022-11-12T11:35:29;97095.41;;;13.95;54.51
73383;BME280;61600;48.126;11.542;2022-11-12T11:41:29;97093.47;;;13.91;54.65
73383;BME280;61600;48.126;11.542;2022-11-12T11:44:27;97088.47;;;13.58;55.35
73383;BME280;61600;48.126;11.542;2022-11-12T11:47:05;97076.44;;;13.59;55.23
73383;BME280;61600;48.126;11.542;2022-11-12T11:52:45;97078.09;;;13.65;55.82
73383;BME280;61600;48.126;11.542;2022-11-12T11:55:45;97078.94;;;13.80;55.87
73383;BME280;61600;48.126;11.542;2022-11-12T11:58:18;97072.44;;;13.96;55.16
73383;BME280;61600;48.126;11.542;2022-11-12T12:01:17;97064.47;;;13.95;55.84
73383;BME280;61600;48.126;11.542;2022-11-12T12:06:32;97060.38;;;13.97;55.78
73383;BME280;61600;48.126;11.542;2022-11-12T12:09:22;97070.47;;;13.82;56.04
73383;BME280;61600;48.126;11.542;2022-11-12T12:12:00;97066.59;;;13.63;56.50
73383;BME280;61600;48.126;11.542;2022-11-12T12:14:33;97057.03;;;13.65;56.56
73383;BME280;61600;48.126;11.542;2022-11-12T12:22:40;97059.53;;;13.77;56.59
73383;BME280;61600;48.126;11.542;2022-11-12T12:25:20;97060.09;;;13.79;56.70
73383;BME280;61600;48.126;11.542;2022-11-12T12:28:00;97057.91;;;13.86;56.18
73383;BME280;61600;48.126;11.542;2022-11-12T12:30:37;97060.91;;;13.94;56.15
73383;BME280;61600;48.126;11.542;2022-11-12T12:33:27;97061.19;;;13.78;56.89
73383;BME280;61600;48.126;11.542;2022-11-12T12:36:07;97057.38;;;14.04;55.60
73383;BME280;61600;48.126;11.542;2022-11-12T12:41:25;97047.50;;;13.78;56.76
73383;BME280;61600;48.126;11.542;2022-11-12T12:44:08;97043.63;;;13.69;56.91
73383;BME280;61600;48.126;11.542;2022-11-12T12:46:45;97034.63;;;13.83;56.06
73383;BME280;61600;48.126;11.542;2022-11-12T12:49:15;97034.38;;;13.75;57.26
73383;BME280;61600;48.126;11.542;2022-11-12T12:51:43;97017.97;;;13.90;56.89
73383;BME280;61600;48.126;11.542;2022-11-12T12:57:02;97022.91;;;13.93;56.63
73383;BME280;61600;48.126;11.542;2022-11-12T12:59:28;97015.81;;;14.07;55.93
73383;BME280;61600;48.126;11.542;2022-11-12T13:02:02;97019.63;;;13.86;55.88
73383;BME280;61600;48.126;11.542;2022-11-12T13:04:54;97011.94;;;13.68;57.12
73383;BME280;61600;48.126;11.542;2022-11-12T13:07:41;97011.41;;;13.81;56.70
73383;BME280;61600;48.126;11.542;2022-11-12T13:10:44;97014.66;;;13.63;57.49
73383;BME280;61600;48.126;11.542;2022-11-12T13:15:45;97006.75;;;13.71;56.53
73383;BME280;61600;48.126;11.542;2022-11-12T13:21:14;97008.38;;;13.57;56.89
73383;BME280;61600;48.126;11.542;2022-11-12T13:23:48;97003.69;;;13.52;57.34
73383;BME280;61600;48.126;11.542;2022-11-12T13:26:52;97006.13;;;13.39;57.53
73383;BME280;61600;48.126;11.542;2022-11-12T13:32:32;97006.44;;;13.63;56.99
73383;BME280;61600;48.126;11.542;2022-11-12T13:43:27;97002.63;;;13.54;57.51
73383;BME280;61600;48.126;11.542;2022-11-12T13:48:47;96991.94;;;13.42;58.36
73383;BME280;61600;48.126;11.542;2022-11-12T13:51:18;96992.75;;;13.47;58.21
73383;BME280;61600;48.126;11.542;2022-11-12T13:53:47;96987.31;;;13.52;57.83
73383;BME280;61600;48.126;11.542;2022-11-12T13:56:32;96981.28;;;13.45;58.18
73383;BME280;61600;48.126;11.542;2022-11-12T14:01:41;96984.81;;;13.51;58.46
73383;BME280;61600;48.126;11.542;2022-11-12T14:04:10;96979.38;;;13.46;58.85
73383;BME280;61600;48.126;11.542;2022-11-12T14:06:52;96982.63;;;13.48;58.58
73383;BME280;61600;48.126;11.542;2022-11-12T14:09:31;96985.63;;;13.41;58.81
73383;BME280;61600;48.126;11.542;2022-11-12T14:15:41;96976.31;;;13.22;59.58
73383;BME280;61600;48.126;11.542;2022-11-12T14:17:51;96977.13;;;13.23;59.38
73383;BME280;61600;48.126;11.542;2022-11-12T14:22:52;96962.94;;;13.31;59.32
73383;BME280;61600;48.126;11.542;2022-11-12T14:25:26;96973.28;;;13.14;59.67
73383;BME280;61600;48.126;11.542;2022-11-12T14:27:55;96962.81;;;13.06;59.92
73383;BME280;61600;48.126;11.542;2022-11-12T14:30:28;96961.34;;;12.78;60.83
73383;BME280;61600;48.126;11.542;2022-11-12T14:33:07;96951.84;;;12.85;60.46
73383;BME280;61600;48.126;11.542;2022-11-12T14:35:38;96952.13;;;12.84;60.23
73383;BME280;61600;48.126;11.542;2022-11-12T14:38:19;96947.44;;;12.79;60.41
73383;BME280;61600;48.126;11.542;2022-11-12T14:41:01;96947.91;;;12.61;61.23
73383;BME280;61600;48.126;11.542;2022-11-12T14:43:37;96946.78;;;12.52;61.78
73383;BME280;61600;48.126;11.542;2022-11-12T14:46:06;96941.09;;;12.64;61.33
73383;BME280;61600;48.126;11.542;2022-11-12T14:48:55;96943.28;;;12.62;61.67
73383;BME280;61600;48.126;11.542;2022-11-12T14:51:25;96929.06;;;12.55;61.67
73383;BME280;61600;48.126;11.542;2022-11-12T14:54:01;96942.69;;;12.55;62.00